TimeEDT,TemperatureF,Dew PointF,Humidity,Sea Level PressureIn,VisibilityMPH,Wind Direction,Wind SpeedMPH,Gust SpeedMPH,PrecipitationIn,Events,Conditions,WindDirDegrees,DateUTC
12:52 AM,27.0,5.0,39,30.31,10.0,North,3.5,-,N/A,,Clear,360,2013-03-18 04:52:00
1:52 AM,26.1,6.1,43,30.34,10.0,NNE,4.6,-,N/A,,Clear,20,2013-03-18 05:52:00
2:52 AM,25.0,1.9,37,30.36,10.0,North,6.9,-,N/A,,Clear,350,2013-03-18 06:52:00
3:52 AM,24.1,-2.0,32,30.38,10.0,North,6.9,-,N/A,,Clear,10,2013-03-18 07:52:00
4:52 AM,23.0,-0.9,35,30.38,10.0,North,4.6,-,N/A,,Clear,360,2013-03-18 08:52:00
5:52 AM,21.0,1.0,42,30.41,10.0,NNW,4.6,-,N/A,,Clear,340,2013-03-18 09:52:00
6:52 AM,21.0,1.0,42,30.43,10.0,North,4.6,-,N/A,,Clear,350,2013-03-18 10:52:00
8:52 AM,27.0,1.9,34,30.45,10.0,North,3.5,-,N/A,,Clear,350,2013-03-18 12:52:00
9:52 AM,28.0,3.0,34,30.45,10.0,NNW,3.5,-,N/A,,Clear,340,2013-03-18 13:52:00
10:52 AM,30.9,7.0,37,30.43,10.0,ENE,4.6,-,N/A,,Clear,60,2013-03-18 14:52:00
11:52 AM,33.1,8.1,35,30.42,10.0,Variable,3.5,-,N/A,,Clear,0,2013-03-18 15:52:00
12:52 PM,37.0,9.0,31,30.40,10.0,NE,4.6,-,N/A,,Clear,50,2013-03-18 16:52:00
1:52 PM,37.9,7.0,28,30.38,10.0,North,-9999.0,-,N/A,,Clear,0,2013-03-18 17:52:00
2:52 PM,39.0,8.1,28,30.35,10.0,ESE,4.6,-,N/A,,Clear,110,2013-03-18 18:52:00
3:52 PM,37.9,14.0,38,30.33,10.0,SSE,8.1,-,N/A,,Clear,160,2013-03-18 19:52:00
4:52 PM,37.0,12.9,37,30.31,10.0,SE,8.1,-,N/A,,Clear,130,2013-03-18 20:52:00
5:52 PM,35.1,16.0,46,30.31,10.0,SE,9.2,-,N/A,,Clear,140,2013-03-18 21:52:00
6:52 PM,34.0,19.0,54,30.30,10.0,SE,5.8,-,N/A,,Mostly Cloudy,130,2013-03-18 22:52:00
7:52 PM,34.0,18.0,52,30.30,10.0,SE,8.1,-,N/A,,Overcast,130,2013-03-18 23:52:00
8:52 PM,33.1,19.9,59,30.29,10.0,SE,8.1,-,N/A,,Overcast,140,2013-03-19 00:52:00
9:52 PM,34.0,21.0,59,30.27,10.0,ESE,10.4,-,N/A,,Overcast,120,2013-03-19 01:52:00
10:52 PM,34.0,21.0,59,30.25,10.0,ESE,6.9,-,N/A,,Overcast,120,2013-03-19 02:52:00
11:52 PM,32.0,24.1,73,30.23,4.0,ENE,6.9,-,0.00,Snow,Light Snow,70,2013-03-19 03:52:00